Terminal Aerodrome Forecast
Issued by NWS Northern Indiana

Home | Current Version | Previous Version | Text Only | Print | Product List | Glossary Off
Versions: 1 2 3 4 5 6 7 8 9 10 11 12 13 14 15 16

000
FTUS43 KIWX 230538
TAFFWA
TAF
KFWA 230538Z 2306/2406 21012KT P6SM BKN020 OVC030
     FM230900 22012KT 5SM -SHRA VCTS BKN020CB
      TEMPO 2310/2311 3SM -TSRA BKN010CB
     FM231100 23012KT 5SM -TSRA OVC015CB
     FM231500 24012KT P6SM OVC015
     FM232200 30009KT P6SM OVC050=

USA.gov is the U.S. government's official web portal to all federal, state and local government web resources and services.